createdAt,value
2023-02-07T00:01:41.474Z,0.74
2023-02-07T00:04:10.127Z,1.03
2023-02-07T00:06:38.791Z,0.96
2023-02-07T00:09:08.900Z,1.09
2023-02-07T00:11:41.788Z,0.93
2023-02-07T00:14:11.307Z,0.75
2023-02-07T00:16:40.789Z,0.66
2023-02-07T00:19:09.372Z,0.59
2023-02-07T00:21:38.156Z,0.66
2023-02-07T00:24:07.848Z,0.67
2023-02-07T00:26:36.409Z,0.67
2023-02-07T00:29:05.309Z,0.63
2023-02-07T00:31:34.642Z,0.70
2023-02-07T00:34:07.826Z,0.28
2023-02-07T00:36:39.795Z,0.51
2023-02-07T00:39:11.769Z,0.81
2023-02-07T00:41:40.408Z,0.35
2023-02-07T00:44:09.033Z,0.25
2023-02-07T00:46:38.273Z,0.32
2023-02-07T00:49:06.800Z,0.56
2023-02-07T00:51:35.611Z,0.56
2023-02-07T00:54:04.650Z,0.72
2023-02-07T00:56:33.236Z,0.57
2023-02-07T00:59:01.612Z,0.55
2023-02-07T01:01:30.617Z,0.64
2023-02-07T01:04:00.139Z,0.63
2023-02-07T01:06:29.765Z,0.60
2023-02-07T01:08:59.381Z,0.46
2023-02-07T01:11:32.331Z,0.61
2023-02-07T01:14:03.245Z,0.74
2023-02-07T01:16:35.315Z,0.65
2023-02-07T01:19:08.379Z,0.62
2023-02-07T01:21:37.065Z,0.57
2023-02-07T01:24:07.325Z,0.52
2023-02-07T01:26:36.420Z,0.70
2023-02-07T01:29:06.190Z,0.79
2023-02-07T01:31:35.379Z,0.42
2023-02-07T01:34:05.606Z,0.47
2023-02-07T01:36:34.853Z,0.30
2023-02-07T01:39:04.359Z,0.44
2023-02-07T01:41:36.293Z,0.27
2023-02-07T01:44:07.645Z,0.37
2023-02-07T01:46:36.944Z,0.28
2023-02-07T01:49:11.586Z,0.50
2023-02-07T01:51:42.371Z,0.61
2023-02-07T01:54:13.154Z,0.53
2023-02-07T01:56:43.838Z,0.73
2023-02-07T01:59:14.461Z,0.75
2023-02-07T02:01:44.145Z,0.74
2023-02-07T02:04:12.719Z,0.66
2023-02-07T02:06:41.494Z,0.14
2023-02-07T02:09:13.040Z,0.26
2023-02-07T02:12:03.686Z,-0.11
2023-02-07T02:14:57.868Z,0.10
2023-02-07T02:17:40.512Z,-0.10
2023-02-07T02:20:41.300Z,0.13
2023-02-07T02:23:24.090Z,0.32
2023-02-07T02:26:03.776Z,0.33
2023-02-07T02:29:16.282Z,-0.17
2023-02-07T02:32:00.143Z,0.15
2023-02-07T02:35:07.537Z,-0.07
2023-02-07T02:38:04.557Z,0.03
2023-02-07T02:40:54.531Z,-0.21
2023-02-07T02:43:44.670Z,-0.35
2023-02-07T02:46:22.454Z,-0.13
2023-02-07T02:48:51.191Z,0.15
2023-02-07T02:51:20.120Z,0.15
2023-02-07T02:53:55.168Z,0.18
2023-02-07T02:56:30.768Z,0.16
2023-02-07T02:59:14.772Z,0.38
2023-02-07T03:01:58.411Z,0.11
2023-02-07T03:05:05.244Z,0.12
2023-02-07T03:07:34.071Z,0.27
2023-02-07T03:10:18.546Z,0.03
2023-02-07T03:12:58.748Z,0.05
2023-02-07T03:15:34.625Z,0.02
2023-02-07T03:18:16.212Z,-0.01
2023-02-07T03:21:13.409Z,0.16
2023-02-07T03:23:42.097Z,-0.10
2023-02-07T03:26:10.594Z,-0.10
2023-02-07T03:28:41.755Z,-0.39
2023-02-07T03:31:10.510Z,-0.52
2023-02-07T03:33:39.668Z,-0.64
2023-02-07T03:36:29.101Z,-0.77
2023-02-07T03:38:58.329Z,-0.72
2023-02-07T03:41:57.484Z,-0.84
2023-02-07T03:44:26.738Z,-1.31
2023-02-07T03:46:55.223Z,-1.26
2023-02-07T03:49:24.058Z,-0.94
2023-02-07T03:51:52.735Z,-1.09
2023-02-07T03:54:21.068Z,-0.90
2023-02-07T03:56:49.900Z,-0.83
2023-02-07T03:59:18.290Z,-0.97
2023-02-07T04:01:47.460Z,-1.02
2023-02-07T04:04:16.113Z,-0.97
2023-02-07T04:06:47.272Z,-1.14
2023-02-07T04:09:16.985Z,-1.23
2023-02-07T04:11:51.790Z,-1.44
2023-02-07T04:14:21.725Z,-1.50
2023-02-07T04:16:50.203Z,-1.50
2023-02-07T04:19:18.736Z,-1.48
2023-02-07T04:21:47.311Z,-1.23
2023-02-07T04:24:16.303Z,-1.23
2023-02-07T04:26:45.403Z,-1.34
2023-02-07T04:29:14.524Z,-1.60
2023-02-07T04:31:42.829Z,-1.76
2023-02-07T04:34:13.245Z,-1.41
2023-02-07T04:36:42.135Z,-1.43
2023-02-07T04:39:10.775Z,-1.62
2023-02-07T04:41:39.782Z,-1.55
2023-02-07T04:44:08.247Z,-1.54
2023-02-07T04:46:37.267Z,-1.47
2023-02-07T04:49:06.573Z,-1.62
2023-02-07T04:51:35.666Z,-1.72
2023-02-07T04:54:04.288Z,-1.91
2023-02-07T04:56:35.358Z,-2.02
2023-02-07T04:59:04.720Z,-1.83
2023-02-07T05:01:33.662Z,-1.87
2023-02-07T05:04:04.616Z,-1.87
2023-02-07T05:06:33.445Z,-1.85
2023-02-07T05:09:05.317Z,-1.80
2023-02-07T05:11:34.045Z,-1.86
2023-02-07T05:14:02.418Z,-2.08
2023-02-07T05:16:31.773Z,-2.16
2023-02-07T05:19:00.376Z,-2.26
2023-02-07T05:21:29.246Z,-2.55
2023-02-07T05:23:57.806Z,-2.10
2023-02-07T05:26:26.592Z,-1.92
2023-02-07T05:28:55.544Z,-1.90
2023-02-07T05:31:44.749Z,-1.96
2023-02-07T05:34:13.568Z,-2.06
2023-02-07T05:36:42.020Z,-1.72
2023-02-07T05:39:10.561Z,-1.74
2023-02-07T05:41:39.142Z,-1.80
2023-02-07T05:44:07.992Z,-1.85
2023-02-07T05:46:37.419Z,-2.10
2023-02-07T05:49:06.191Z,-1.96
2023-02-07T05:51:34.705Z,-2.21
2023-02-07T05:54:03.111Z,-2.10
2023-02-07T05:56:32.042Z,-2.33
2023-02-07T05:59:00.520Z,-2.30
2023-02-07T06:01:29.137Z,-2.10
2023-02-07T06:03:58.514Z,-1.95
2023-02-07T06:06:27.773Z,-1.87
2023-02-07T06:08:56.240Z,-1.80
2023-02-07T06:11:25.479Z,-1.61
2023-02-07T06:13:53.984Z,-1.13
2023-02-07T06:16:23.281Z,-0.94
2023-02-07T06:18:52.756Z,-0.85
2023-02-07T06:21:21.529Z,-0.47
2023-02-07T06:23:52.024Z,-0.09
2023-02-07T06:26:20.654Z,0.09
2023-02-07T06:28:49.037Z,-0.06
2023-02-07T06:31:17.777Z,0.31
2023-02-07T06:33:47.004Z,-0.02
2023-02-07T06:36:15.396Z,-0.14
2023-02-07T06:38:44.233Z,-0.09
2023-02-07T06:41:12.812Z,0.47
2023-02-07T06:43:41.416Z,0.09
2023-02-07T06:46:09.861Z,0.30
2023-02-07T06:48:38.686Z,0.72
2023-02-07T06:51:07.287Z,1.00
2023-02-07T06:53:36.709Z,1.23
2023-02-07T06:56:05.805Z,1.14
2023-02-07T06:58:34.682Z,1.88
2023-02-07T07:01:03.677Z,2.46
2023-02-07T07:03:32.443Z,2.47
2023-02-07T07:06:00.934Z,2.48
2023-02-07T07:08:29.634Z,3.23
2023-02-07T07:10:59.048Z,3.73
2023-02-07T07:13:28.017Z,4.02
2023-02-07T07:15:56.524Z,4.57
2023-02-07T07:18:27.303Z,5.04
2023-02-07T07:20:56.231Z,5.03
2023-02-07T07:23:24.713Z,5.27
2023-02-07T07:25:53.183Z,5.34
2023-02-07T07:28:21.688Z,5.73
2023-02-07T07:30:50.148Z,5.65
2023-02-07T07:33:18.559Z,5.50
2023-02-07T07:35:47.260Z,5.74
2023-02-07T07:38:15.993Z,5.86
2023-02-07T07:40:44.563Z,6.10
2023-02-07T07:43:12.946Z,6.15
2023-02-07T07:45:54.954Z,6.20
2023-02-07T07:48:24.175Z,5.69
2023-02-07T07:50:53.405Z,5.86
2023-02-07T07:53:22.072Z,6.07
2023-02-07T07:55:51.791Z,6.45
2023-02-07T07:58:20.513Z,6.85
2023-02-07T08:00:49.242Z,6.48
2023-02-07T08:03:19.365Z,5.76
2023-02-07T08:05:48.457Z,5.96
2023-02-07T08:08:17.626Z,5.42
2023-02-07T08:10:47.618Z,6.25
2023-02-07T08:13:17.287Z,6.75
2023-02-07T08:15:46.137Z,6.68
2023-02-07T08:18:14.525Z,6.18
2023-02-07T08:20:43.502Z,6.71
2023-02-07T08:23:12.560Z,6.66
2023-02-07T08:25:41.795Z,5.73
2023-02-07T08:28:10.772Z,5.61
2023-02-07T08:30:39.657Z,4.64
2023-02-07T08:33:08.784Z,4.61
2023-02-07T08:35:37.181Z,4.60
2023-02-07T08:38:05.617Z,4.99
2023-02-07T08:40:34.648Z,5.23
2023-02-07T08:43:06.948Z,4.78
2023-02-07T08:45:36.615Z,4.62
2023-02-07T08:48:05.435Z,4.49
2023-02-07T08:50:34.579Z,4.48
2023-02-07T08:53:02.886Z,4.83
2023-02-07T08:55:31.258Z,4.89
2023-02-07T08:57:59.759Z,4.09
2023-02-07T09:00:28.273Z,4.09
2023-02-07T09:02:57.152Z,4.36
2023-02-07T09:05:25.685Z,3.80
2023-02-07T09:07:54.977Z,3.91
2023-02-07T09:10:27.683Z,4.38
2023-02-07T09:12:56.984Z,4.59
2023-02-07T09:15:26.422Z,4.59
2023-02-07T09:17:54.932Z,3.95
2023-02-07T09:20:24.503Z,3.71
2023-02-07T09:23:17.535Z,3.94
2023-02-07T09:25:51.343Z,4.23
2023-02-07T09:28:22.596Z,4.45
2023-02-07T09:30:52.007Z,4.13
2023-02-07T09:33:23.774Z,4.39
2023-02-07T09:35:52.543Z,3.73
2023-02-07T09:38:22.769Z,4.04
2023-02-07T09:40:51.912Z,3.54
2023-02-07T09:43:41.542Z,4.00
2023-02-07T09:46:22.694Z,4.10
2023-02-07T09:48:54.499Z,3.86
2023-02-07T09:51:24.047Z,3.12
2023-02-07T09:54:00.219Z,2.78
2023-02-07T09:56:29.773Z,2.95
2023-02-07T09:59:16.926Z,2.98
2023-02-07T10:01:47.050Z,3.00
2023-02-07T10:04:26.917Z,3.05
2023-02-07T10:06:57.449Z,2.38
2023-02-07T10:09:31.582Z,2.48
2023-02-07T10:12:05.430Z,2.99
2023-02-07T10:14:36.869Z,3.14
2023-02-07T10:17:31.373Z,3.79
2023-02-07T10:20:19.435Z,3.68
2023-02-07T10:22:48.037Z,3.82
2023-02-07T10:25:35.802Z,3.79
2023-02-07T10:28:13.767Z,3.61
2023-02-07T10:30:53.127Z,4.14
2023-02-07T10:33:29.251Z,4.47
2023-02-07T10:35:58.314Z,4.34
2023-02-07T10:38:33.766Z,4.24
2023-02-07T10:41:04.949Z,3.85
2023-02-07T10:43:35.456Z,4.15
2023-02-07T10:46:06.863Z,4.44
2023-02-07T10:48:36.956Z,3.74
2023-02-07T10:51:30.197Z,3.75
2023-02-07T10:54:13.086Z,2.87
2023-02-07T10:56:46.930Z,3.17
2023-02-07T10:59:46.156Z,2.73
2023-02-07T11:02:40.264Z,2.27
2023-02-07T11:05:17.844Z,2.06
2023-02-07T11:08:03.020Z,2.33
2023-02-07T11:10:33.755Z,2.45
2023-02-07T11:13:02.494Z,2.50
2023-02-07T11:16:01.138Z,2.16
2023-02-07T11:18:44.459Z,1.14
2023-02-07T11:21:33.499Z,1.00
2023-02-07T11:24:11.778Z,1.08
2023-02-07T11:26:53.532Z,0.96
2023-02-07T11:29:22.710Z,1.11
2023-02-07T11:31:53.128Z,0.95
2023-02-07T11:34:40.893Z,0.73
2023-02-07T11:37:39.319Z,0.51
2023-02-07T11:40:20.075Z,0.34
2023-02-07T11:43:00.118Z,0.69
2023-02-07T11:45:29.081Z,0.79
2023-02-07T11:47:57.789Z,0.71
2023-02-07T11:50:27.039Z,0.94
2023-02-07T11:52:58.804Z,0.59
2023-02-07T11:55:38.524Z,0.56
2023-02-07T11:58:24.092Z,0.68
2023-02-07T12:00:53.659Z,0.42
2023-02-07T12:03:26.639Z,0.34
2023-02-07T12:05:57.285Z,0.64
2023-02-07T12:08:28.465Z,0.63
2023-02-07T12:10:59.167Z,0.59
2023-02-07T12:13:29.501Z,0.48
2023-02-07T12:16:04.669Z,0.66
2023-02-07T12:18:43.444Z,0.32
2023-02-07T12:21:32.740Z,0.08
2023-02-07T12:24:20.287Z,0.18
2023-02-07T12:27:13.666Z,0.17
2023-02-07T12:29:48.189Z,0.27
2023-02-07T12:32:44.578Z,0.32
2023-02-07T12:35:32.107Z,0.38
2023-02-07T12:38:13.011Z,0.50
2023-02-07T12:40:50.425Z,0.63
2023-02-07T12:43:26.342Z,0.47
2023-02-07T12:46:01.133Z,0.38
2023-02-07T12:48:30.175Z,0.34
2023-02-07T12:51:10.941Z,0.35
2023-02-07T12:53:39.368Z,0.59
2023-02-07T12:56:27.986Z,0.73
2023-02-07T12:59:11.037Z,0.52
2023-02-07T13:01:47.573Z,0.31
2023-02-07T13:04:40.774Z,0.23
2023-02-07T13:07:14.543Z,0.43
2023-02-07T13:09:56.428Z,0.51
2023-02-07T13:12:41.963Z,0.33
2023-02-07T13:15:26.646Z,0.64
2023-02-07T13:17:58.705Z,0.60
2023-02-07T13:20:30.570Z,0.72
2023-02-07T13:23:03.088Z,0.77
2023-02-07T13:25:44.729Z,0.50
2023-02-07T13:28:18.767Z,0.60
2023-02-07T13:30:48.001Z,0.18
2023-02-07T13:33:33.009Z,0.01
2023-02-07T13:36:26.399Z,0.29
2023-02-07T13:39:23.029Z,0.25
2023-02-07T13:41:51.485Z,-0.00
2023-02-07T13:44:25.249Z,0.35
2023-02-07T13:47:07.162Z,0.33
2023-02-07T13:49:50.308Z,0.58
2023-02-07T13:53:00.203Z,0.43
2023-02-07T13:55:40.584Z,0.36
2023-02-07T13:59:08.114Z,0.11
2023-02-07T14:01:37.098Z,0.34
2023-02-07T14:04:06.858Z,0.41
2023-02-07T14:06:55.028Z,0.54
2023-02-07T14:09:29.845Z,0.58
2023-02-07T14:11:58.688Z,0.41
2023-02-07T14:14:28.248Z,-0.02
2023-02-07T14:16:58.279Z,-0.09
2023-02-07T14:19:45.819Z,-0.03
2023-02-07T14:22:43.053Z,0.10
2023-02-07T14:25:19.281Z,0.31
2023-02-07T14:27:51.634Z,0.26
2023-02-07T14:30:42.054Z,0.26
2023-02-07T14:33:20.910Z,0.04
2023-02-07T14:36:14.524Z,0.18
2023-02-07T14:39:11.021Z,-0.13
2023-02-07T14:41:41.761Z,-0.09
2023-02-07T14:44:26.034Z,-0.13
2023-02-07T14:46:58.318Z,0.11
2023-02-07T14:49:36.628Z,0.24
2023-02-07T14:52:11.516Z,0.07
2023-02-07T14:55:15.055Z,0.12
2023-02-07T14:58:04.467Z,0.17
2023-02-07T15:00:39.526Z,0.14
2023-02-07T15:03:13.675Z,-0.14
2023-02-07T15:05:52.965Z,-0.10
2023-02-07T15:08:26.276Z,0.13
2023-02-07T15:11:08.877Z,0.07
2023-02-07T15:13:45.535Z,-0.10
2023-02-07T15:16:16.584Z,0.01
2023-02-07T15:18:59.035Z,-0.05
2023-02-07T15:21:43.834Z,-0.15
2023-02-07T15:24:51.413Z,-0.11
2023-02-07T15:27:41.400Z,-0.37
2023-02-07T15:30:19.139Z,-0.32
2023-02-07T15:32:48.358Z,-0.17
2023-02-07T15:35:22.464Z,-0.32
2023-02-07T15:37:51.317Z,-0.13
2023-02-07T15:40:24.395Z,-0.11
2023-02-07T15:42:57.975Z,-0.19
2023-02-07T15:45:30.899Z,-0.40
2023-02-07T15:48:01.742Z,-0.45
2023-02-07T15:50:30.544Z,-0.45
2023-02-07T15:53:01.169Z,-0.63
2023-02-07T15:55:37.048Z,-0.64
2023-02-07T15:58:10.194Z,-0.61
2023-02-07T16:00:40.581Z,-0.52
2023-02-07T16:03:23.205Z,-0.54
2023-02-07T16:06:01.562Z,-0.74
2023-02-07T16:08:33.173Z,-0.60
2023-02-07T16:11:24.220Z,-0.60
2023-02-07T16:14:02.572Z,-0.51
2023-02-07T16:16:39.723Z,-0.65
2023-02-07T16:19:14.380Z,-0.92
2023-02-07T16:21:43.302Z,-0.74
2023-02-07T16:24:15.866Z,-0.69
2023-02-07T16:26:51.058Z,-0.70
2023-02-07T16:29:21.447Z,-0.65
2023-02-07T16:31:50.338Z,-0.63
2023-02-07T16:34:21.029Z,-0.76
2023-02-07T16:36:54.969Z,-0.91
2023-02-07T16:39:23.675Z,-0.90
2023-02-07T16:42:01.593Z,-0.95
2023-02-07T16:44:32.885Z,-1.14
2023-02-07T16:47:01.347Z,-0.88
2023-02-07T16:49:31.097Z,-1.00
2023-02-07T16:51:59.626Z,-0.96
2023-02-07T16:54:28.354Z,-0.93
2023-02-07T16:56:57.973Z,-0.90
2023-02-07T16:59:26.608Z,-0.74
2023-02-07T17:01:55.827Z,-0.79
2023-02-07T17:04:24.316Z,-0.70
2023-02-07T17:06:52.883Z,-0.77
2023-02-07T17:09:24.267Z,-0.73
2023-02-07T17:11:54.176Z,-0.70
2023-02-07T17:14:23.691Z,-0.80
2023-02-07T17:16:52.214Z,-0.85
2023-02-07T17:19:24.051Z,-0.85
2023-02-07T17:21:53.225Z,-0.69
2023-02-07T17:24:22.366Z,-0.59
2023-02-07T17:26:52.959Z,-0.58
2023-02-07T17:29:21.674Z,-0.54
2023-02-07T17:31:50.308Z,-0.56
2023-02-07T17:34:18.778Z,-0.74
2023-02-07T17:36:49.993Z,-0.82
2023-02-07T17:39:19.669Z,-0.69
2023-02-07T17:41:48.957Z,-0.64
2023-02-07T17:44:21.573Z,-0.70
2023-02-07T17:46:50.522Z,-0.73
2023-02-07T17:49:20.157Z,-0.75
2023-02-07T17:51:49.177Z,-0.75
2023-02-07T17:54:17.951Z,-0.72
2023-02-07T17:56:46.661Z,-0.78
2023-02-07T17:59:33.489Z,-0.83
2023-02-07T18:02:04.405Z,-0.92
2023-02-07T18:04:32.809Z,-0.93
2023-02-07T18:07:06.200Z,-0.81
2023-02-07T18:09:35.896Z,-0.84
2023-02-07T18:12:06.060Z,-0.96
2023-02-07T18:14:35.350Z,-0.91
2023-02-07T18:17:04.421Z,-0.81
2023-02-07T18:19:33.658Z,-0.81
2023-02-07T18:22:02.685Z,-0.81
2023-02-07T18:24:34.364Z,-0.73
2023-02-07T18:27:03.025Z,-0.84
2023-02-07T18:29:32.063Z,-0.77
2023-02-07T18:32:00.673Z,-0.88
2023-02-07T18:34:29.350Z,-0.89
2023-02-07T18:36:58.053Z,-0.82
2023-02-07T18:39:26.815Z,-0.72
2023-02-07T18:41:55.725Z,-0.74
2023-02-07T18:44:24.193Z,-0.66
2023-02-07T18:46:52.690Z,-0.53
2023-02-07T18:49:22.132Z,-0.45
2023-02-07T18:51:50.867Z,-0.54
2023-02-07T18:54:19.422Z,-0.52
2023-02-07T18:56:52.466Z,-0.54
2023-02-07T18:59:22.546Z,-0.71
2023-02-07T19:01:53.709Z,-0.76
2023-02-07T19:04:23.370Z,-0.64
2023-02-07T19:06:52.421Z,-1.01
2023-02-07T19:09:21.346Z,-0.86
2023-02-07T19:11:51.609Z,-0.80
2023-02-07T19:14:22.082Z,-0.78
2023-02-07T19:16:53.041Z,-0.84
2023-02-07T19:19:22.429Z,-0.99
2023-02-07T19:21:53.406Z,-1.06
2023-02-07T19:24:23.937Z,-1.27
2023-02-07T19:26:56.218Z,-1.05
2023-02-07T19:29:29.750Z,-0.99
2023-02-07T19:32:03.006Z,-1.22
2023-02-07T19:34:31.640Z,-1.47
2023-02-07T19:37:00.527Z,-1.18
2023-02-07T19:39:29.155Z,-1.10
2023-02-07T19:41:57.588Z,-1.12
2023-02-07T19:44:26.494Z,-1.23
2023-02-07T19:46:55.246Z,-1.30
2023-02-07T19:49:23.794Z,-1.47
2023-02-07T19:51:52.247Z,-1.30
2023-02-07T19:54:20.707Z,-1.31
2023-02-07T19:56:49.999Z,-1.39
2023-02-07T19:59:19.212Z,-1.41
2023-02-07T20:01:47.675Z,-1.35
2023-02-07T20:04:16.135Z,-1.47
2023-02-07T20:06:44.735Z,-1.63
2023-02-07T20:09:13.184Z,-1.50
2023-02-07T20:11:41.727Z,-1.50
2023-02-07T20:14:11.706Z,-1.64
2023-02-07T20:16:40.936Z,-1.70
2023-02-07T20:19:09.296Z,-1.89
2023-02-07T20:21:37.854Z,-2.05
2023-02-07T20:24:07.955Z,-2.05
2023-02-07T20:26:39.429Z,-1.89
2023-02-07T20:29:11.685Z,-2.13
2023-02-07T20:31:40.884Z,-2.24
2023-02-07T20:34:14.217Z,-2.19
2023-02-07T20:36:44.032Z,-2.15
2023-02-07T20:39:20.460Z,-2.07
2023-02-07T20:41:50.227Z,-2.10
2023-02-07T20:44:23.220Z,-2.13
2023-02-07T20:46:52.007Z,-2.15
2023-02-07T20:49:23.519Z,-2.51
2023-02-07T20:52:12.904Z,-2.58
2023-02-07T20:54:41.491Z,-2.34
2023-02-07T20:57:10.112Z,-2.44
2023-02-07T20:59:39.053Z,-2.52
2023-02-07T21:02:07.842Z,-2.57
2023-02-07T21:04:37.642Z,-2.47
2023-02-07T21:07:07.498Z,-2.34
2023-02-07T21:09:36.117Z,-2.40
2023-02-07T21:12:05.298Z,-2.60
2023-02-07T21:14:34.907Z,-2.47
2023-02-07T21:17:08.545Z,-2.58
2023-02-07T21:19:37.387Z,-2.97
2023-02-07T21:22:06.449Z,-3.14
2023-02-07T21:24:34.959Z,-3.06
2023-02-07T21:27:05.374Z,-3.10
2023-02-07T21:29:36.597Z,-3.16
2023-02-07T21:32:05.905Z,-3.19
2023-02-07T21:34:34.714Z,-3.46
2023-02-07T21:37:03.468Z,-3.60
2023-02-07T21:39:32.444Z,-3.69
2023-02-07T21:42:01.129Z,-3.49
2023-02-07T21:44:30.026Z,-3.57
2023-02-07T21:46:58.714Z,-3.54
2023-02-07T21:49:28.819Z,-3.57
2023-02-07T21:51:58.445Z,-3.40
2023-02-07T21:54:27.327Z,-3.54
2023-02-07T21:56:57.160Z,-3.49
2023-02-07T21:59:26.799Z,-3.38
2023-02-07T22:01:55.631Z,-3.48
2023-02-07T22:04:24.371Z,-3.47
2023-02-07T22:06:53.555Z,-3.54
2023-02-07T22:09:23.762Z,-3.67
2023-02-07T22:11:54.774Z,-3.86
2023-02-07T22:14:25.132Z,-3.71
2023-02-07T22:16:54.062Z,-3.56
2023-02-07T22:19:22.708Z,-3.47
2023-02-07T22:21:51.246Z,-3.41
2023-02-07T22:24:20.241Z,-3.53
2023-02-07T22:26:49.141Z,-3.52
2023-02-07T22:29:17.957Z,-3.55
2023-02-07T22:31:46.737Z,-3.45
2023-02-07T22:34:15.527Z,-3.44
2023-02-07T22:36:45.048Z,-3.59
2023-02-07T22:39:15.133Z,-3.53
2023-02-07T22:41:45.079Z,-3.52
2023-02-07T22:44:14.014Z,-3.81
2023-02-07T22:46:43.709Z,-3.70
2023-02-07T22:49:12.677Z,-3.77
2023-02-07T22:51:41.469Z,-3.68
2023-02-07T22:54:12.662Z,-3.73
2023-02-07T22:56:41.237Z,-3.72
2023-02-07T22:59:12.091Z,-3.70
2023-02-07T23:01:40.982Z,-3.73
2023-02-07T23:04:13.476Z,-3.75
2023-02-07T23:06:43.265Z,-3.71
2023-02-07T23:09:12.020Z,-3.58
2023-02-07T23:11:41.251Z,-3.60
2023-02-07T23:14:10.350Z,-3.65
2023-02-07T23:16:39.539Z,-3.66
2023-02-07T23:19:13.915Z,-3.72
2023-02-07T23:21:43.027Z,-3.96
2023-02-07T23:24:14.842Z,-4.18
2023-02-07T23:26:43.377Z,-4.03
2023-02-07T23:29:12.141Z,-3.99
2023-02-07T23:31:40.929Z,-3.98
2023-02-07T23:34:10.125Z,-3.95
2023-02-07T23:36:39.204Z,-4.17
2023-02-07T23:39:08.414Z,-4.17
2023-02-07T23:41:37.154Z,-4.08
2023-02-07T23:44:07.202Z,-4.09
2023-02-07T23:46:35.906Z,-4.06
2023-02-07T23:49:05.640Z,-4.09
2023-02-07T23:51:34.314Z,-4.20
2023-02-07T23:54:03.510Z,-4.15
2023-02-07T23:56:36.618Z,-4.38
2023-02-07T23:59:05.207Z,-4.38
